createdAt,value
2018-10-09T00:02:04.749Z,99.90
2018-10-09T00:04:33.546Z,99.90
2018-10-09T00:07:02.200Z,99.90
2018-10-09T00:09:30.887Z,99.90
2018-10-09T00:11:59.544Z,99.90
2018-10-09T00:14:28.226Z,99.90
2018-10-09T00:16:56.925Z,99.90
2018-10-09T00:19:25.652Z,99.90
2018-10-09T00:21:54.410Z,99.90
2018-10-09T00:24:23.377Z,99.90
2018-10-09T00:26:52.018Z,99.90
2018-10-09T00:29:20.704Z,99.90
2018-10-09T00:31:49.592Z,99.90
2018-10-09T00:34:18.281Z,99.90
2018-10-09T00:36:46.949Z,99.90
2018-10-09T00:39:15.676Z,99.90
2018-10-09T00:41:44.380Z,99.90
2018-10-09T00:44:13.071Z,99.90
2018-10-09T00:46:41.942Z,99.90
2018-10-09T00:49:10.672Z,99.90
2018-10-09T00:51:39.485Z,99.90
2018-10-09T00:54:08.220Z,99.90
2018-10-09T00:56:37.067Z,99.90
2018-10-09T00:59:06.058Z,99.90
2018-10-09T01:01:34.775Z,99.90
2018-10-09T01:04:03.482Z,99.90
2018-10-09T01:06:32.163Z,99.90
2018-10-09T01:09:00.906Z,99.90
2018-10-09T01:11:29.531Z,99.90
2018-10-09T01:13:58.199Z,99.90
2018-10-09T01:16:26.832Z,99.90
2018-10-09T01:18:55.521Z,99.90
2018-10-09T01:21:24.247Z,99.90
2018-10-09T01:23:53.015Z,99.90
2018-10-09T01:26:21.905Z,99.90
2018-10-09T01:28:50.614Z,99.90
2018-10-09T01:31:19.377Z,99.90
2018-10-09T01:33:48.314Z,99.90
2018-10-09T01:36:17.034Z,99.90
2018-10-09T01:38:45.748Z,99.90
2018-10-09T01:41:14.492Z,99.90
2018-10-09T01:43:43.198Z,99.90
2018-10-09T01:46:11.890Z,99.90
2018-10-09T01:48:40.812Z,99.90
2018-10-09T01:51:09.468Z,99.90
2018-10-09T01:53:38.251Z,99.90
2018-10-09T01:56:06.979Z,99.90
2018-10-09T01:58:35.829Z,99.90
2018-10-09T02:01:04.963Z,99.90
2018-10-09T02:03:33.627Z,99.90
2018-10-09T02:06:02.339Z,99.90
2018-10-09T02:08:31.207Z,99.90
2018-10-09T02:10:59.877Z,99.90
2018-10-09T02:13:28.581Z,99.90
2018-10-09T02:15:57.687Z,99.90
2018-10-09T02:18:26.374Z,99.90
2018-10-09T02:20:55.166Z,99.90
2018-10-09T02:23:24.104Z,99.90
2018-10-09T02:25:52.796Z,99.90
2018-10-09T02:28:21.578Z,99.90
2018-10-09T02:30:50.272Z,99.90
2018-10-09T02:33:18.938Z,99.90
2018-10-09T02:35:47.594Z,99.90
2018-10-09T02:38:16.323Z,99.90
2018-10-09T02:40:45.258Z,99.90
2018-10-09T02:43:13.963Z,99.90
2018-10-09T02:45:42.603Z,99.90
2018-10-09T02:48:11.367Z,99.90
2018-10-09T02:50:40.177Z,99.90
2018-10-09T02:53:08.854Z,99.90
2018-10-09T02:55:37.482Z,99.90
2018-10-09T02:58:06.291Z,99.90
2018-10-09T03:00:34.969Z,99.90
2018-10-09T03:03:03.791Z,99.90
2018-10-09T03:05:32.505Z,99.90
2018-10-09T03:08:01.198Z,99.90
2018-10-09T03:10:29.908Z,99.90
2018-10-09T03:12:58.620Z,99.90
2018-10-09T03:15:27.316Z,99.90
2018-10-09T03:17:55.954Z,99.90
2018-10-09T03:20:24.684Z,99.90
2018-10-09T03:22:53.362Z,99.90
2018-10-09T03:25:22.102Z,99.90
2018-10-09T03:27:50.764Z,99.90
2018-10-09T03:30:19.457Z,99.90
2018-10-09T03:32:48.344Z,99.90
2018-10-09T03:35:17.072Z,99.90
2018-10-09T03:37:45.800Z,99.90
2018-10-09T03:40:14.446Z,99.90
2018-10-09T03:42:43.356Z,99.90
2018-10-09T03:45:12.033Z,99.90
2018-10-09T03:47:40.819Z,99.90
2018-10-09T03:50:09.551Z,99.90
2018-10-09T03:52:38.225Z,99.90
2018-10-09T03:55:07.201Z,99.90
2018-10-09T03:57:35.873Z,99.90
2018-10-09T04:00:05.067Z,99.90
2018-10-09T04:02:33.782Z,99.90
2018-10-09T04:05:02.499Z,99.90
2018-10-09T04:07:31.204Z,99.90
2018-10-09T04:09:59.895Z,99.90
2018-10-09T04:12:28.558Z,99.90
2018-10-09T04:14:57.276Z,99.90
2018-10-09T04:17:25.926Z,99.90
2018-10-09T04:19:54.802Z,99.90
2018-10-09T04:22:24.303Z,99.90
2018-10-09T04:24:52.972Z,99.90
2018-10-09T04:27:21.666Z,99.90
2018-10-09T04:29:50.496Z,99.90
2018-10-09T04:32:19.346Z,99.90
2018-10-09T04:34:48.420Z,99.90
2018-10-09T04:37:17.135Z,99.90
2018-10-09T04:39:45.955Z,99.90
2018-10-09T04:42:14.762Z,99.90
2018-10-09T04:44:43.445Z,99.90
2018-10-09T04:47:12.141Z,99.90
2018-10-09T04:49:41.128Z,99.90
2018-10-09T04:52:09.843Z,99.90
2018-10-09T04:54:38.531Z,99.90
2018-10-09T04:57:07.163Z,99.90
2018-10-09T04:59:35.794Z,99.90
2018-10-09T05:02:04.505Z,99.90
2018-10-09T05:04:33.177Z,99.90
2018-10-09T05:07:01.959Z,99.90
2018-10-09T05:09:30.782Z,99.90
2018-10-09T05:11:59.541Z,99.90
2018-10-09T05:14:28.461Z,99.90
2018-10-09T05:16:57.416Z,99.90
2018-10-09T05:19:26.148Z,99.90
2018-10-09T05:21:54.820Z,99.90
2018-10-09T05:24:23.579Z,99.90
2018-10-09T05:26:52.498Z,99.90
2018-10-09T05:29:21.327Z,99.90
2018-10-09T05:31:50.255Z,99.90
2018-10-09T05:34:18.990Z,99.90
2018-10-09T05:36:48.050Z,99.90
2018-10-09T05:39:17.059Z,99.90
2018-10-09T05:41:45.847Z,99.90
2018-10-09T05:44:14.602Z,99.90
2018-10-09T05:46:43.331Z,99.90
2018-10-09T05:49:12.067Z,99.90
2018-10-09T05:51:40.712Z,99.90
2018-10-09T05:54:09.370Z,99.90
2018-10-09T05:56:38.053Z,99.90
2018-10-09T05:59:06.798Z,99.90
2018-10-09T06:01:35.492Z,99.90
2018-10-09T06:04:04.302Z,99.90
2018-10-09T06:06:33.048Z,99.90
2018-10-09T06:09:01.772Z,99.90
2018-10-09T06:11:30.444Z,99.90
2018-10-09T06:13:59.148Z,99.90
2018-10-09T06:16:27.825Z,99.90
2018-10-09T06:18:56.463Z,99.90
2018-10-09T06:21:25.189Z,99.90
2018-10-09T06:23:53.977Z,99.90
2018-10-09T06:26:22.717Z,99.90
2018-10-09T06:28:51.370Z,99.90
2018-10-09T06:31:20.027Z,99.90
2018-10-09T06:33:48.741Z,99.90
2018-10-09T06:36:17.445Z,99.90
2018-10-09T06:38:46.104Z,99.90
2018-10-09T06:41:14.930Z,99.90
2018-10-09T06:43:43.614Z,99.90
2018-10-09T06:46:16.706Z,99.90
2018-10-09T06:48:46.236Z,99.90
2018-10-09T06:51:14.956Z,99.90
2018-10-09T06:53:44.164Z,99.90
2018-10-09T06:56:13.071Z,99.90
2018-10-09T06:58:41.748Z,99.90
2018-10-09T07:01:10.503Z,99.90
2018-10-09T07:03:39.359Z,99.90
2018-10-09T07:06:08.363Z,99.90
2018-10-09T07:08:37.938Z,99.90
2018-10-09T07:11:06.843Z,99.90
2018-10-09T07:13:35.912Z,99.90
2018-10-09T07:16:04.685Z,99.90
2018-10-09T07:18:33.392Z,99.90
2018-10-09T07:21:02.129Z,99.90
2018-10-09T07:23:30.826Z,99.90
2018-10-09T07:25:59.764Z,99.90
2018-10-09T07:28:28.482Z,99.90
2018-10-09T07:30:57.208Z,99.90
2018-10-09T07:33:25.946Z,99.90
2018-10-09T07:35:54.918Z,99.90
2018-10-09T07:38:23.998Z,99.90
2018-10-09T07:40:52.672Z,99.90
2018-10-09T07:43:21.434Z,99.90
2018-10-09T07:45:50.147Z,99.90
2018-10-09T07:48:18.839Z,99.90
2018-10-09T07:50:47.826Z,99.90
2018-10-09T07:53:16.510Z,99.90
2018-10-09T07:55:45.371Z,99.90
2018-10-09T07:58:14.327Z,99.90
2018-10-09T08:00:43.196Z,99.90
2018-10-09T08:03:12.348Z,99.90
2018-10-09T08:05:41.060Z,99.90
2018-10-09T08:08:09.744Z,99.90
2018-10-09T08:10:38.468Z,99.90
2018-10-09T08:13:07.464Z,99.90
2018-10-09T08:15:36.517Z,99.90
2018-10-09T08:18:05.379Z,99.90
2018-10-09T08:20:34.193Z,99.90
2018-10-09T08:23:02.858Z,99.90
2018-10-09T08:25:31.690Z,99.90
2018-10-09T08:28:00.400Z,99.90
2018-10-09T08:30:29.274Z,99.90
2018-10-09T08:32:58.187Z,99.90
2018-10-09T08:35:26.969Z,99.90
2018-10-09T08:37:55.652Z,99.90
2018-10-09T08:40:24.464Z,99.90
2018-10-09T08:42:53.953Z,99.90
2018-10-09T08:45:22.840Z,99.90
2018-10-09T08:47:51.545Z,99.90
2018-10-09T08:50:20.254Z,99.90
2018-10-09T08:52:49.073Z,99.90
2018-10-09T08:55:17.836Z,99.90
2018-10-09T08:57:46.957Z,99.90
2018-10-09T09:00:15.644Z,99.90
2018-10-09T09:02:44.314Z,99.90
2018-10-09T09:05:13.003Z,99.90
2018-10-09T09:07:41.689Z,99.90
2018-10-09T09:10:10.344Z,99.90
2018-10-09T09:12:39.008Z,99.90
2018-10-09T09:15:08.416Z,99.90
2018-10-09T09:17:37.121Z,99.90
2018-10-09T09:20:05.888Z,99.90
2018-10-09T09:22:34.649Z,99.90
2018-10-09T09:25:03.337Z,99.90
2018-10-09T09:27:32.225Z,99.90
2018-10-09T09:30:00.837Z,99.90
2018-10-09T09:32:29.629Z,99.90
2018-10-09T09:34:58.401Z,99.90
2018-10-09T09:37:27.215Z,99.90
2018-10-09T09:39:55.937Z,99.90
2018-10-09T09:42:24.665Z,99.90
2018-10-09T09:44:53.329Z,99.90
2018-10-09T09:47:22.149Z,99.90
2018-10-09T09:49:50.865Z,99.90
2018-10-09T09:52:19.571Z,99.90
2018-10-09T09:54:48.416Z,99.90
2018-10-09T09:57:17.109Z,99.90
2018-10-09T09:59:46.036Z,99.90
2018-10-09T10:02:14.755Z,99.90
2018-10-09T10:04:43.412Z,99.90
2018-10-09T10:07:12.288Z,99.90
2018-10-09T10:09:41.262Z,99.90
2018-10-09T10:12:09.933Z,99.90
2018-10-09T10:14:38.604Z,99.90
2018-10-09T10:17:07.332Z,99.90
2018-10-09T10:19:36.043Z,99.90
2018-10-09T10:22:04.734Z,99.90
2018-10-09T10:24:33.479Z,99.90
2018-10-09T10:27:02.240Z,99.90
2018-10-09T10:29:31.000Z,99.90
2018-10-09T10:31:59.991Z,99.90
2018-10-09T10:34:28.846Z,99.90
2018-10-09T10:36:57.547Z,99.90
2018-10-09T10:39:26.256Z,99.90
2018-10-09T10:41:55.089Z,99.90
2018-10-09T10:44:23.844Z,99.90
2018-10-09T10:46:52.544Z,99.90
2018-10-09T10:49:21.243Z,99.90
2018-10-09T10:51:49.906Z,99.90
2018-10-09T10:54:18.732Z,99.90
2018-10-09T10:56:47.398Z,99.90
2018-10-09T10:59:16.087Z,99.90
2018-10-09T11:01:44.821Z,99.90
2018-10-09T11:04:13.499Z,99.90
2018-10-09T11:06:42.161Z,99.90
2018-10-09T11:09:11.411Z,99.90
2018-10-09T11:11:40.219Z,99.90
2018-10-09T11:14:08.912Z,99.90
2018-10-09T11:16:37.627Z,99.90
2018-10-09T11:19:06.442Z,99.90
2018-10-09T11:21:35.142Z,99.90
2018-10-09T11:24:03.891Z,99.90
2018-10-09T11:26:32.593Z,99.90
2018-10-09T11:29:01.447Z,99.90
2018-10-09T11:31:30.125Z,99.90
2018-10-09T11:33:58.780Z,99.90
2018-10-09T11:36:27.507Z,99.90
2018-10-09T11:38:56.182Z,99.90
2018-10-09T11:41:24.850Z,99.90
2018-10-09T11:43:53.747Z,99.90
2018-10-09T11:46:22.591Z,99.90
2018-10-09T11:48:51.542Z,99.90
2018-10-09T11:51:20.212Z,99.90
2018-10-09T11:53:48.860Z,99.90
2018-10-09T11:56:17.520Z,99.90
2018-10-09T11:58:46.218Z,99.90
2018-10-09T12:01:15.118Z,99.90
2018-10-09T12:03:43.836Z,99.90
2018-10-09T12:06:12.722Z,99.90
2018-10-09T12:08:41.447Z,99.90
2018-10-09T12:11:10.123Z,99.90
2018-10-09T12:13:38.775Z,99.90
2018-10-09T12:16:07.659Z,99.90
2018-10-09T12:18:36.339Z,99.90
2018-10-09T12:21:05.077Z,99.90
2018-10-09T12:23:33.828Z,99.90
2018-10-09T12:26:02.631Z,99.50
2018-10-09T12:28:31.323Z,99.30
2018-10-09T12:31:00.240Z,99.60
2018-10-09T12:33:28.895Z,98.70
2018-10-09T12:35:57.550Z,97.70
2018-10-09T12:38:26.527Z,97.10
2018-10-09T12:40:55.228Z,97.40
2018-10-09T12:43:23.932Z,97.00
2018-10-09T12:45:52.609Z,96.60
2018-10-09T12:48:21.380Z,96.60
2018-10-09T12:50:50.028Z,96.00
2018-10-09T12:53:18.846Z,95.90
2018-10-09T12:55:47.511Z,95.80
2018-10-09T12:58:16.213Z,93.40
2018-10-09T13:00:44.933Z,93.00
2018-10-09T13:03:13.648Z,90.90
2018-10-09T13:05:42.494Z,91.10
2018-10-09T13:08:11.177Z,91.20
2018-10-09T13:10:39.862Z,90.40
2018-10-09T13:13:08.581Z,90.80
2018-10-09T13:15:37.265Z,88.10
2018-10-09T13:18:06.157Z,85.00
2018-10-09T13:20:34.847Z,85.80
2018-10-09T13:23:03.497Z,85.60
2018-10-09T13:25:32.191Z,85.50
2018-10-09T13:28:00.931Z,85.30
2018-10-09T13:30:29.904Z,85.50
2018-10-09T13:32:58.780Z,83.80
2018-10-09T13:35:27.598Z,83.80
2018-10-09T13:37:56.335Z,83.40
2018-10-09T13:40:25.142Z,83.20
2018-10-09T13:42:54.130Z,84.40
2018-10-09T13:45:22.788Z,83.00
2018-10-09T13:47:51.487Z,83.90
2018-10-09T13:50:20.198Z,83.20
2018-10-09T13:52:48.985Z,83.90
2018-10-09T13:55:18.008Z,83.60
2018-10-09T13:57:46.837Z,83.80
2018-10-09T14:00:15.592Z,83.60
2018-10-09T14:02:44.344Z,83.10
2018-10-09T14:05:13.034Z,83.60
2018-10-09T14:07:41.667Z,84.50
2018-10-09T14:10:10.397Z,85.10
2018-10-09T14:12:39.075Z,84.10
2018-10-09T14:15:08.037Z,84.30
2018-10-09T14:17:36.623Z,86.30
2018-10-09T14:20:05.585Z,86.60
2018-10-09T14:22:34.320Z,87.80
2018-10-09T14:25:03.194Z,87.40
2018-10-09T14:27:31.930Z,86.80
2018-10-09T14:30:00.809Z,86.90
2018-10-09T14:32:29.471Z,87.60
2018-10-09T14:34:58.277Z,86.60
2018-10-09T14:37:27.048Z,88.20
2018-10-09T14:39:55.938Z,86.70
2018-10-09T14:42:24.614Z,87.10
2018-10-09T14:44:53.465Z,87.70
2018-10-09T14:47:22.399Z,90.00
2018-10-09T14:49:51.100Z,87.40
2018-10-09T14:52:19.952Z,87.40
2018-10-09T14:54:48.657Z,87.20
2018-10-09T14:57:17.461Z,86.60
2018-10-09T14:59:46.118Z,86.90
2018-10-09T15:02:14.957Z,86.40
2018-10-09T15:04:43.665Z,87.40
2018-10-09T15:07:12.523Z,87.30
2018-10-09T15:09:41.252Z,86.50
2018-10-09T15:12:09.911Z,85.10
2018-10-09T15:14:38.584Z,85.20
2018-10-09T15:17:07.422Z,86.40
2018-10-09T15:19:36.122Z,84.00
2018-10-09T15:22:04.857Z,84.80
2018-10-09T15:24:33.583Z,83.70
2018-10-09T15:27:02.455Z,83.90
2018-10-09T15:29:31.153Z,84.50
2018-10-09T15:31:59.853Z,85.30
2018-10-09T15:34:28.668Z,85.00
2018-10-09T15:36:57.368Z,84.80
2018-10-09T15:39:26.069Z,85.30
2018-10-09T15:41:54.758Z,86.40
2018-10-09T15:44:23.501Z,87.00
2018-10-09T15:46:52.223Z,88.10
2018-10-09T15:49:21.138Z,87.30
2018-10-09T15:51:49.803Z,87.00
2018-10-09T15:54:18.496Z,88.20
2018-10-09T15:56:47.258Z,88.30
2018-10-09T15:59:15.966Z,88.60
2018-10-09T16:01:44.694Z,89.10
2018-10-09T16:04:13.447Z,90.20
2018-10-09T16:06:42.143Z,90.50
2018-10-09T16:09:11.572Z,90.90
2018-10-09T16:11:40.392Z,91.20
2018-10-09T16:14:09.114Z,91.30
2018-10-09T16:16:37.845Z,91.50
2018-10-09T16:19:06.832Z,91.90
2018-10-09T16:21:35.626Z,92.50
2018-10-09T16:24:04.394Z,92.00
2018-10-09T16:26:33.100Z,92.40
2018-10-09T16:29:01.812Z,92.50
2018-10-09T16:31:30.540Z,93.30
2018-10-09T16:33:59.230Z,93.50
2018-10-09T16:36:27.884Z,93.30
2018-10-09T16:38:56.643Z,93.70
2018-10-09T16:41:25.365Z,93.80
2018-10-09T16:43:54.054Z,94.80
2018-10-09T16:46:22.764Z,94.80
2018-10-09T16:48:51.418Z,95.00
2018-10-09T16:51:20.108Z,95.10
2018-10-09T16:53:48.797Z,95.80
2018-10-09T16:56:17.490Z,95.80
2018-10-09T16:58:46.216Z,95.40
2018-10-09T17:01:14.959Z,95.70
2018-10-09T17:03:43.644Z,95.70
2018-10-09T17:06:12.380Z,95.70
2018-10-09T17:08:41.076Z,96.60
2018-10-09T17:11:09.825Z,95.80
2018-10-09T17:13:38.494Z,96.10
2018-10-09T17:16:07.369Z,96.50
2018-10-09T17:18:36.140Z,96.20
2018-10-09T17:21:04.916Z,96.50
2018-10-09T17:23:33.840Z,97.90
2018-10-09T17:26:02.532Z,97.60
2018-10-09T17:28:31.249Z,97.10
2018-10-09T17:30:59.893Z,98.30
2018-10-09T17:33:28.641Z,98.50
2018-10-09T17:35:57.334Z,97.80
2018-10-09T17:38:26.016Z,98.50
2018-10-09T17:40:54.865Z,98.50
2018-10-09T17:43:23.819Z,98.60
2018-10-09T17:45:52.557Z,98.50
2018-10-09T17:48:21.527Z,98.70
2018-10-09T17:50:50.244Z,99.90
2018-10-09T17:53:18.981Z,99.90
2018-10-09T17:55:47.790Z,99.90
2018-10-09T17:58:16.474Z,99.90
2018-10-09T18:00:45.206Z,99.90
2018-10-09T18:03:13.989Z,99.90
2018-10-09T18:05:42.705Z,99.90
2018-10-09T18:08:11.362Z,99.90
2018-10-09T18:10:40.077Z,99.90
2018-10-09T18:13:08.774Z,99.90
2018-10-09T18:15:37.628Z,99.90
2018-10-09T18:18:06.887Z,99.90
2018-10-09T18:20:35.596Z,99.90
2018-10-09T18:23:04.340Z,99.90
2018-10-09T18:25:33.333Z,99.90
2018-10-09T18:28:02.020Z,99.90
2018-10-09T18:30:30.800Z,99.90
2018-10-09T18:32:59.627Z,99.90
2018-10-09T18:35:28.257Z,99.90
2018-10-09T18:37:57.052Z,99.90
2018-10-09T18:40:26.202Z,99.90
2018-10-09T18:42:55.066Z,99.90
2018-10-09T18:45:24.660Z,99.90
2018-10-09T18:47:53.640Z,99.90
2018-10-09T18:50:22.674Z,99.90
2018-10-09T18:52:51.458Z,99.90
2018-10-09T18:55:20.208Z,99.90
2018-10-09T18:57:49.250Z,99.90
2018-10-09T19:00:18.082Z,99.90
2018-10-09T19:02:46.858Z,99.90
2018-10-09T19:05:15.557Z,99.90
2018-10-09T19:07:44.334Z,99.90
2018-10-09T19:10:13.507Z,99.90
2018-10-09T19:12:42.179Z,99.90
2018-10-09T19:15:11.025Z,99.90
2018-10-09T19:17:40.122Z,99.90
2018-10-09T19:20:08.916Z,99.90
2018-10-09T19:22:37.589Z,99.90
2018-10-09T19:25:07.392Z,99.90
2018-10-09T19:27:36.119Z,99.90
2018-10-09T19:30:05.176Z,99.90
2018-10-09T19:32:34.263Z,99.90
2018-10-09T19:35:02.884Z,99.90
2018-10-09T19:37:31.864Z,99.90
2018-10-09T19:40:00.669Z,99.90
2018-10-09T19:42:29.400Z,99.90
2018-10-09T19:44:58.316Z,99.90
2018-10-09T19:47:27.130Z,99.90
2018-10-09T19:49:55.830Z,99.90
2018-10-09T19:52:24.606Z,99.90
2018-10-09T19:54:53.365Z,99.90
2018-10-09T19:57:22.103Z,99.90
2018-10-09T19:59:50.969Z,99.90
2018-10-09T20:02:20.222Z,99.90
2018-10-09T20:04:48.929Z,99.90
2018-10-09T20:07:17.767Z,99.90
2018-10-09T20:09:46.558Z,99.90
2018-10-09T20:12:15.625Z,99.90
2018-10-09T20:14:44.670Z,99.90
2018-10-09T20:17:13.583Z,99.90
2018-10-09T20:19:42.445Z,99.90
2018-10-09T20:22:11.824Z,99.90
2018-10-09T20:24:40.934Z,99.90
2018-10-09T20:27:09.753Z,99.90
2018-10-09T20:29:38.480Z,99.90
2018-10-09T20:32:07.265Z,99.90
2018-10-09T20:34:36.102Z,99.90
2018-10-09T20:37:05.091Z,99.90
2018-10-09T20:39:33.838Z,99.90
2018-10-09T20:42:02.687Z,99.90
2018-10-09T20:44:31.367Z,99.90
2018-10-09T20:47:00.090Z,99.90
2018-10-09T20:49:29.031Z,99.90
2018-10-09T20:51:57.727Z,99.90
2018-10-09T20:54:26.440Z,99.90
2018-10-09T20:56:55.201Z,99.90
2018-10-09T20:59:24.001Z,99.90
2018-10-09T21:01:52.883Z,99.90
2018-10-09T21:04:21.665Z,99.90
2018-10-09T21:06:50.428Z,99.90
2018-10-09T21:09:19.240Z,99.90
2018-10-09T21:11:47.910Z,99.90
2018-10-09T21:14:16.686Z,99.90
2018-10-09T21:16:45.350Z,99.90
2018-10-09T21:19:14.042Z,99.90
2018-10-09T21:21:42.705Z,99.90
2018-10-09T21:24:11.469Z,99.90
2018-10-09T21:26:40.214Z,99.90
2018-10-09T21:29:09.092Z,99.90
2018-10-09T21:31:37.775Z,99.90
2018-10-09T21:34:06.550Z,99.90
2018-10-09T21:36:35.644Z,99.90
2018-10-09T21:39:05.452Z,99.90
2018-10-09T21:41:34.135Z,99.90
2018-10-09T21:44:02.836Z,99.90
2018-10-09T21:46:31.628Z,99.90
2018-10-09T21:49:00.353Z,99.90
2018-10-09T21:51:29.032Z,99.90
2018-10-09T21:53:57.827Z,99.90
2018-10-09T21:56:26.558Z,99.90
2018-10-09T21:58:55.280Z,99.90
2018-10-09T22:01:24.028Z,99.90
2018-10-09T22:03:52.711Z,99.90
2018-10-09T22:06:21.463Z,99.90
2018-10-09T22:08:53.533Z,99.90
2018-10-09T22:11:22.423Z,99.90
2018-10-09T22:13:51.123Z,99.90
2018-10-09T22:16:19.844Z,99.90
2018-10-09T22:18:48.626Z,99.90
2018-10-09T22:21:17.334Z,99.90
2018-10-09T22:23:46.194Z,99.90
2018-10-09T22:26:14.940Z,99.90
2018-10-09T22:28:43.884Z,99.90
2018-10-09T22:31:12.916Z,99.90
2018-10-09T22:33:41.676Z,99.90
2018-10-09T22:36:10.532Z,99.90
2018-10-09T22:38:39.381Z,99.90
2018-10-09T22:41:08.192Z,99.90
2018-10-09T22:43:37.297Z,99.90
2018-10-09T22:46:06.056Z,99.90
2018-10-09T22:48:35.007Z,99.90
2018-10-09T22:51:03.691Z,99.90
2018-10-09T22:53:32.381Z,99.90
2018-10-09T22:56:01.071Z,99.90
2018-10-09T22:58:29.801Z,99.90
2018-10-09T23:00:58.465Z,99.90
2018-10-09T23:03:27.155Z,99.90
2018-10-09T23:05:55.839Z,99.90
2018-10-09T23:08:24.617Z,99.90
2018-10-09T23:10:53.667Z,99.90
2018-10-09T23:13:22.571Z,99.90
2018-10-09T23:15:51.270Z,99.90
2018-10-09T23:18:19.951Z,99.90
2018-10-09T23:20:48.692Z,99.90
2018-10-09T23:23:17.450Z,99.90
2018-10-09T23:25:46.312Z,99.90
2018-10-09T23:28:14.976Z,99.90
2018-10-09T23:30:43.712Z,99.90
2018-10-09T23:33:12.470Z,99.90
2018-10-09T23:35:41.204Z,99.90
2018-10-09T23:38:10.214Z,99.90
2018-10-09T23:40:39.031Z,99.90
2018-10-09T23:43:07.725Z,99.90
2018-10-09T23:45:36.676Z,99.90
2018-10-09T23:48:08.294Z,99.90
2018-10-09T23:50:39.189Z,99.90
2018-10-09T23:53:07.927Z,99.90
2018-10-09T23:55:37.953Z,99.90
2018-10-09T23:58:07.101Z,99.90
